sensor_id;sensor_type;location;lat;lon;timestamp;temperature;humidity
6496;DHT22;3281;47.658;9.166;2023-02-15T00:01:58;2.90;1.00
6496;DHT22;3281;47.658;9.166;2023-02-15T00:04:25;3.00;1.00
6496;DHT22;3281;47.658;9.166;2023-02-15T00:07:12;2.90;1.00
6496;DHT22;3281;47.658;9.166;2023-02-15T00:09:39;2.90;1.00
6496;DHT22;3281;47.658;9.166;2023-02-15T00:12:06;2.90;1.00
6496;DHT22;3281;47.658;9.166;2023-02-15T00:14:32;2.90;1.00
6496;DHT22;3281;47.658;9.166;2023-02-15T00:17:00;2.90;1.00
6496;DHT22;3281;47.658;9.166;2023-02-15T00:19:27;2.90;1.00
6496;DHT22;3281;47.658;9.166;2023-02-15T00:21:54;2.80;1.00
6496;DHT22;3281;47.658;9.166;2023-02-15T00:24:21;2.80;1.00
6496;DHT22;3281;47.658;9.166;2023-02-15T00:26:48;2.80;1.00
6496;DHT22;3281;47.658;9.166;2023-02-15T00:29:16;2.90;1.00
6496;DHT22;3281;47.658;9.166;2023-02-15T00:31:43;2.90;1.00
6496;DHT22;3281;47.658;9.166;2023-02-15T00:34:13;2.90;1.00
6496;DHT22;3281;47.658;9.166;2023-02-15T00:36:41;2.80;1.00
6496;DHT22;3281;47.658;9.166;2023-02-15T00:39:08;2.80;1.00
6496;DHT22;3281;47.658;9.166;2023-02-15T00:41:35;2.80;1.00
6496;DHT22;3281;47.658;9.166;2023-02-15T00:44:02;2.70;1.00
6496;DHT22;3281;47.658;9.166;2023-02-15T00:46:29;2.70;1.00
6496;DHT22;3281;47.658;9.166;2023-02-15T00:48:56;2.60;1.00
6496;DHT22;3281;47.658;9.166;2023-02-15T00:51:24;2.50;1.00
6496;DHT22;3281;47.658;9.166;2023-02-15T00:53:51;2.50;1.00
6496;DHT22;3281;47.658;9.166;2023-02-15T00:56:18;2.60;1.00
6496;DHT22;3281;47.658;9.166;2023-02-15T00:58:45;2.70;1.00
6496;DHT22;3281;47.658;9.166;2023-02-15T01:01:14;2.70;1.00
6496;DHT22;3281;47.658;9.166;2023-02-15T01:03:41;2.70;1.00
6496;DHT22;3281;47.658;9.166;2023-02-15T01:06:09;2.70;1.00
6496;DHT22;3281;47.658;9.166;2023-02-15T01:08:38;2.80;1.00
6496;DHT22;3281;47.658;9.166;2023-02-15T01:11:05;2.80;1.00
6496;DHT22;3281;47.658;9.166;2023-02-15T01:13:33;2.80;1.00
6496;DHT22;3281;47.658;9.166;2023-02-15T01:16:01;2.70;1.00
6496;DHT22;3281;47.658;9.166;2023-02-15T01:18:28;2.70;1.00
6496;DHT22;3281;47.658;9.166;2023-02-15T01:20:55;2.60;1.00
6496;DHT22;3281;47.658;9.166;2023-02-15T01:23:22;2.60;1.00
6496;DHT22;3281;47.658;9.166;2023-02-15T01:25:50;2.60;1.00
6496;DHT22;3281;47.658;9.166;2023-02-15T01:28:17;2.50;1.00
6496;DHT22;3281;47.658;9.166;2023-02-15T01:30:44;2.60;1.00
6496;DHT22;3281;47.658;9.166;2023-02-15T01:33:10;2.70;1.00
6496;DHT22;3281;47.658;9.166;2023-02-15T01:35:43;2.70;1.00
6496;DHT22;3281;47.658;9.166;2023-02-15T01:38:10;2.70;1.00
6496;DHT22;3281;47.658;9.166;2023-02-15T01:40:37;2.70;1.00
6496;DHT22;3281;47.658;9.166;2023-02-15T01:43:10;2.80;1.00
6496;DHT22;3281;47.658;9.166;2023-02-15T01:45:37;2.80;1.00
6496;DHT22;3281;47.658;9.166;2023-02-15T01:48:17;2.80;1.00
6496;DHT22;3281;47.658;9.166;2023-02-15T01:50:48;2.80;1.00
6496;DHT22;3281;47.658;9.166;2023-02-15T01:53:20;2.80;1.00
6496;DHT22;3281;47.658;9.166;2023-02-15T01:55:52;2.70;1.00
6496;DHT22;3281;47.658;9.166;2023-02-15T01:58:22;2.70;1.00
6496;DHT22;3281;47.658;9.166;2023-02-15T02:00:49;2.70;1.00
6496;DHT22;3281;47.658;9.166;2023-02-15T02:03:16;2.70;1.00
6496;DHT22;3281;47.658;9.166;2023-02-15T02:05:43;2.60;1.00
6496;DHT22;3281;47.658;9.166;2023-02-15T02:08:09;2.70;1.00
6496;DHT22;3281;47.658;9.166;2023-02-15T02:10:37;2.60;1.00
6496;DHT22;3281;47.658;9.166;2023-02-15T02:13:05;2.60;1.00
6496;DHT22;3281;47.658;9.166;2023-02-15T02:15:40;2.70;1.00
6496;DHT22;3281;47.658;9.166;2023-02-15T02:18:21;2.70;1.00
6496;DHT22;3281;47.658;9.166;2023-02-15T02:21:02;2.90;1.00
6496;DHT22;3281;47.658;9.166;2023-02-15T02:23:48;2.70;1.00
6496;DHT22;3281;47.658;9.166;2023-02-15T02:26:43;2.90;1.00
6496;DHT22;3281;47.658;9.166;2023-02-15T02:29:49;3.00;1.00
6496;DHT22;3281;47.658;9.166;2023-02-15T02:32:48;3.00;1.00
6496;DHT22;3281;47.658;9.166;2023-02-15T02:35:21;2.80;1.00
6496;DHT22;3281;47.658;9.166;2023-02-15T02:37:55;2.60;1.00
6496;DHT22;3281;47.658;9.166;2023-02-15T02:40:34;2.60;1.00
6496;DHT22;3281;47.658;9.166;2023-02-15T02:43:07;2.50;1.00
6496;DHT22;3281;47.658;9.166;2023-02-15T02:45:40;2.60;1.00
6496;DHT22;3281;47.658;9.166;2023-02-15T02:48:15;2.70;1.00
6496;DHT22;3281;47.658;9.166;2023-02-15T02:50:42;2.70;1.00
6496;DHT22;3281;47.658;9.166;2023-02-15T02:53:10;2.70;1.00
6496;DHT22;3281;47.658;9.166;2023-02-15T02:55:39;2.60;1.00
6496;DHT22;3281;47.658;9.166;2023-02-15T02:58:10;2.70;1.00
6496;DHT22;3281;47.658;9.166;2023-02-15T03:00:44;2.70;1.00
6496;DHT22;3281;47.658;9.166;2023-02-15T03:03:17;2.60;1.00
6496;DHT22;3281;47.658;9.166;2023-02-15T03:05:47;2.60;1.00
6496;DHT22;3281;47.658;9.166;2023-02-15T03:08:14;2.60;1.00
6496;DHT22;3281;47.658;9.166;2023-02-15T03:10:48;2.60;1.00
6496;DHT22;3281;47.658;9.166;2023-02-15T03:13:16;2.50;1.00
6496;DHT22;3281;47.658;9.166;2023-02-15T03:15:44;2.60;1.00
6496;DHT22;3281;47.658;9.166;2023-02-15T03:18:33;2.70;1.00
6496;DHT22;3281;47.658;9.166;2023-02-15T03:21:01;2.60;1.00
6496;DHT22;3281;47.658;9.166;2023-02-15T03:23:30;2.60;1.00
6496;DHT22;3281;47.658;9.166;2023-02-15T03:26:01;2.60;1.00
6496;DHT22;3281;47.658;9.166;2023-02-15T03:28:32;2.70;1.00
6496;DHT22;3281;47.658;9.166;2023-02-15T03:31:01;2.60;1.00
6496;DHT22;3281;47.658;9.166;2023-02-15T03:33:30;2.60;1.00
6496;DHT22;3281;47.658;9.166;2023-02-15T03:36:01;2.40;1.00
6496;DHT22;3281;47.658;9.166;2023-02-15T03:38:33;2.50;1.00
6496;DHT22;3281;47.658;9.166;2023-02-15T03:41:01;2.30;1.00
6496;DHT22;3281;47.658;9.166;2023-02-15T03:43:43;2.30;1.00
6496;DHT22;3281;47.658;9.166;2023-02-15T03:46:17;2.30;1.00
6496;DHT22;3281;47.658;9.166;2023-02-15T03:48:50;2.40;1.00
6496;DHT22;3281;47.658;9.166;2023-02-15T03:51:21;2.40;1.00
6496;DHT22;3281;47.658;9.166;2023-02-15T03:54:03;2.40;1.00
6496;DHT22;3281;47.658;9.166;2023-02-15T03:56:31;2.40;1.00
6496;DHT22;3281;47.658;9.166;2023-02-15T03:58:59;2.40;1.00
6496;DHT22;3281;47.658;9.166;2023-02-15T04:01:49;2.40;1.00
6496;DHT22;3281;47.658;9.166;2023-02-15T04:04:32;2.20;1.00
6496;DHT22;3281;47.658;9.166;2023-02-15T04:07:00;2.30;1.00
6496;DHT22;3281;47.658;9.166;2023-02-15T04:09:27;2.20;1.00
6496;DHT22;3281;47.658;9.166;2023-02-15T04:12:11;2.30;1.00
6496;DHT22;3281;47.658;9.166;2023-02-15T04:14:38;2.40;1.00
6496;DHT22;3281;47.658;9.166;2023-02-15T04:17:22;2.40;1.00
6496;DHT22;3281;47.658;9.166;2023-02-15T04:19:50;2.40;1.00
6496;DHT22;3281;47.658;9.166;2023-02-15T04:22:35;2.20;1.00
6496;DHT22;3281;47.658;9.166;2023-02-15T04:25:19;2.30;1.00
6496;DHT22;3281;47.658;9.166;2023-02-15T04:27:48;2.40;1.00
6496;DHT22;3281;47.658;9.166;2023-02-15T04:30:17;2.30;1.00
6496;DHT22;3281;47.658;9.166;2023-02-15T04:32:44;2.30;1.00
6496;DHT22;3281;47.658;9.166;2023-02-15T04:35:12;2.30;1.00
6496;DHT22;3281;47.658;9.166;2023-02-15T04:37:40;2.20;1.00
6496;DHT22;3281;47.658;9.166;2023-02-15T04:40:08;2.20;1.00
6496;DHT22;3281;47.658;9.166;2023-02-15T04:42:35;2.20;1.00
6496;DHT22;3281;47.658;9.166;2023-02-15T04:45:02;2.20;1.00
6496;DHT22;3281;47.658;9.166;2023-02-15T04:47:29;2.20;1.00
6496;DHT22;3281;47.658;9.166;2023-02-15T04:49:56;2.20;1.00
6496;DHT22;3281;47.658;9.166;2023-02-15T04:52:24;2.20;1.00
6496;DHT22;3281;47.658;9.166;2023-02-15T04:54:51;2.20;1.00
6496;DHT22;3281;47.658;9.166;2023-02-15T04:57:18;2.20;1.00
6496;DHT22;3281;47.658;9.166;2023-02-15T04:59:44;2.20;1.00
6496;DHT22;3281;47.658;9.166;2023-02-15T05:02:11;2.20;1.00
6496;DHT22;3281;47.658;9.166;2023-02-15T05:04:38;2.20;1.00
6496;DHT22;3281;47.658;9.166;2023-02-15T05:07:04;2.30;1.00
6496;DHT22;3281;47.658;9.166;2023-02-15T05:09:32;2.20;1.00
6496;DHT22;3281;47.658;9.166;2023-02-15T05:11:59;2.20;1.00
6496;DHT22;3281;47.658;9.166;2023-02-15T05:14:26;2.30;1.00
6496;DHT22;3281;47.658;9.166;2023-02-15T05:16:52;2.20;1.00
6496;DHT22;3281;47.658;9.166;2023-02-15T05:19:20;2.20;1.00
6496;DHT22;3281;47.658;9.166;2023-02-15T05:21:48;2.20;1.00
6496;DHT22;3281;47.658;9.166;2023-02-15T05:24:15;2.20;1.00
6496;DHT22;3281;47.658;9.166;2023-02-15T05:27:12;2.30;1.00
6496;DHT22;3281;47.658;9.166;2023-02-15T05:29:57;2.20;1.00
6496;DHT22;3281;47.658;9.166;2023-02-15T05:32:24;2.20;1.00
6496;DHT22;3281;47.658;9.166;2023-02-15T05:34:50;2.30;1.00
6496;DHT22;3281;47.658;9.166;2023-02-15T05:37:17;2.30;1.00
6496;DHT22;3281;47.658;9.166;2023-02-15T05:39:44;2.30;1.00
6496;DHT22;3281;47.658;9.166;2023-02-15T05:42:12;2.30;1.00
6496;DHT22;3281;47.658;9.166;2023-02-15T05:44:38;2.30;1.00
6496;DHT22;3281;47.658;9.166;2023-02-15T05:47:05;2.40;1.00
6496;DHT22;3281;47.658;9.166;2023-02-15T05:49:33;2.30;1.00
6496;DHT22;3281;47.658;9.166;2023-02-15T05:51:59;2.30;1.00
6496;DHT22;3281;47.658;9.166;2023-02-15T05:54:26;2.30;1.00
6496;DHT22;3281;47.658;9.166;2023-02-15T05:56:53;2.40;1.00
6496;DHT22;3281;47.658;9.166;2023-02-15T05:59:22;2.40;1.00
6496;DHT22;3281;47.658;9.166;2023-02-15T06:01:48;2.40;1.00
6496;DHT22;3281;47.658;9.166;2023-02-15T06:04:15;2.40;1.00
6496;DHT22;3281;47.658;9.166;2023-02-15T06:06:42;2.50;1.00
6496;DHT22;3281;47.658;9.166;2023-02-15T06:09:10;2.40;1.00
6496;DHT22;3281;47.658;9.166;2023-02-15T06:11:37;2.40;1.00
6496;DHT22;3281;47.658;9.166;2023-02-15T06:14:03;2.40;1.00
6496;DHT22;3281;47.658;9.166;2023-02-15T06:16:31;2.20;1.00
6496;DHT22;3281;47.658;9.166;2023-02-15T06:18:58;2.20;1.00
6496;DHT22;3281;47.658;9.166;2023-02-15T06:21:26;2.30;1.00
6496;DHT22;3281;47.658;9.166;2023-02-15T06:23:53;2.30;1.00
6496;DHT22;3281;47.658;9.166;2023-02-15T06:26:20;2.30;1.00
6496;DHT22;3281;47.658;9.166;2023-02-15T06:28:46;2.40;1.00
6496;DHT22;3281;47.658;9.166;2023-02-15T06:31:13;2.40;1.00
6496;DHT22;3281;47.658;9.166;2023-02-15T06:33:42;2.30;1.00
6496;DHT22;3281;47.658;9.166;2023-02-15T06:36:08;2.30;1.00
6496;DHT22;3281;47.658;9.166;2023-02-15T06:38:35;2.30;1.00
6496;DHT22;3281;47.658;9.166;2023-02-15T06:41:02;2.30;1.00
6496;DHT22;3281;47.658;9.166;2023-02-15T06:43:29;2.30;1.00
6496;DHT22;3281;47.658;9.166;2023-02-15T06:45:55;2.20;1.00
6496;DHT22;3281;47.658;9.166;2023-02-15T06:48:22;2.30;1.00
6496;DHT22;3281;47.658;9.166;2023-02-15T06:50:50;2.30;1.00
6496;DHT22;3281;47.658;9.166;2023-02-15T06:53:17;2.40;1.00
6496;DHT22;3281;47.658;9.166;2023-02-15T06:55:43;2.40;1.00
6496;DHT22;3281;47.658;9.166;2023-02-15T06:58:10;2.30;1.00
6496;DHT22;3281;47.658;9.166;2023-02-15T07:00:37;2.40;1.00
6496;DHT22;3281;47.658;9.166;2023-02-15T07:03:03;2.30;1.00
6496;DHT22;3281;47.658;9.166;2023-02-15T07:05:33;2.40;1.00
6496;DHT22;3281;47.658;9.166;2023-02-15T07:08:01;2.40;1.00
6496;DHT22;3281;47.658;9.166;2023-02-15T07:10:28;2.40;1.00
6496;DHT22;3281;47.658;9.166;2023-02-15T07:12:55;2.40;1.00
6496;DHT22;3281;47.658;9.166;2023-02-15T07:15:21;2.30;1.00
6496;DHT22;3281;47.658;9.166;2023-02-15T07:17:48;2.30;1.00
6496;DHT22;3281;47.658;9.166;2023-02-15T07:20:17;2.30;1.00
6496;DHT22;3281;47.658;9.166;2023-02-15T07:22:45;2.30;1.00
6496;DHT22;3281;47.658;9.166;2023-02-15T07:25:13;2.30;1.00
6496;DHT22;3281;47.658;9.166;2023-02-15T07:27:40;2.40;1.00
6496;DHT22;3281;47.658;9.166;2023-02-15T07:30:09;2.40;1.00
6496;DHT22;3281;47.658;9.166;2023-02-15T07:32:36;2.30;1.00
6496;DHT22;3281;47.658;9.166;2023-02-15T07:35:24;2.30;1.00
6496;DHT22;3281;47.658;9.166;2023-02-15T07:37:51;2.40;1.00
6496;DHT22;3281;47.658;9.166;2023-02-15T07:40:19;2.40;1.00
6496;DHT22;3281;47.658;9.166;2023-02-15T07:42:49;2.60;1.00
6496;DHT22;3281;47.658;9.166;2023-02-15T07:45:17;2.70;1.00
6496;DHT22;3281;47.658;9.166;2023-02-15T07:47:44;2.60;1.00
6496;DHT22;3281;47.658;9.166;2023-02-15T07:50:10;2.60;1.00
6496;DHT22;3281;47.658;9.166;2023-02-15T07:52:37;2.50;1.00
6496;DHT22;3281;47.658;9.166;2023-02-15T07:55:04;2.50;1.00
6496;DHT22;3281;47.658;9.166;2023-02-15T07:57:32;2.50;1.00
6496;DHT22;3281;47.658;9.166;2023-02-15T07:59:59;2.50;1.00
6496;DHT22;3281;47.658;9.166;2023-02-15T08:02:26;2.50;1.00
6496;DHT22;3281;47.658;9.166;2023-02-15T08:04:54;2.60;1.00
6496;DHT22;3281;47.658;9.166;2023-02-15T08:07:21;2.70;1.00
6496;DHT22;3281;47.658;9.166;2023-02-15T08:09:47;2.70;1.00
6496;DHT22;3281;47.658;9.166;2023-02-15T08:12:14;2.70;1.00
6496;DHT22;3281;47.658;9.166;2023-02-15T08:14:42;2.80;1.00
6496;DHT22;3281;47.658;9.166;2023-02-15T08:17:09;3.00;1.00
6496;DHT22;3281;47.658;9.166;2023-02-15T08:19:35;3.00;1.00
6496;DHT22;3281;47.658;9.166;2023-02-15T08:22:04;3.10;1.00
6496;DHT22;3281;47.658;9.166;2023-02-15T08:24:33;3.10;1.00
6496;DHT22;3281;47.658;9.166;2023-02-15T08:26:59;2.90;1.00
6496;DHT22;3281;47.658;9.166;2023-02-15T08:29:30;2.80;1.00
6496;DHT22;3281;47.658;9.166;2023-02-15T08:32:00;2.90;1.00
6496;DHT22;3281;47.658;9.166;2023-02-15T08:34:29;2.80;1.00
6496;DHT22;3281;47.658;9.166;2023-02-15T08:36:56;2.80;1.00
6496;DHT22;3281;47.658;9.166;2023-02-15T08:39:23;2.90;1.00
6496;DHT22;3281;47.658;9.166;2023-02-15T08:41:50;2.80;1.00
6496;DHT22;3281;47.658;9.166;2023-02-15T08:44:18;3.10;1.00
6496;DHT22;3281;47.658;9.166;2023-02-15T08:46:46;3.30;1.00
6496;DHT22;3281;47.658;9.166;2023-02-15T08:49:16;3.30;1.00
6496;DHT22;3281;47.658;9.166;2023-02-15T08:51:43;3.20;1.00
6496;DHT22;3281;47.658;9.166;2023-02-15T08:54:13;3.20;1.00
6496;DHT22;3281;47.658;9.166;2023-02-15T08:56:41;3.10;1.00
6496;DHT22;3281;47.658;9.166;2023-02-15T08:59:12;3.40;1.00
6496;DHT22;3281;47.658;9.166;2023-02-15T09:01:39;3.30;1.00
6496;DHT22;3281;47.658;9.166;2023-02-15T09:04:07;3.40;1.00
6496;DHT22;3281;47.658;9.166;2023-02-15T09:06:36;3.30;1.00
6496;DHT22;3281;47.658;9.166;2023-02-15T09:09:03;3.50;1.00
6496;DHT22;3281;47.658;9.166;2023-02-15T09:11:34;3.40;1.00
6496;DHT22;3281;47.658;9.166;2023-02-15T09:14:02;3.30;1.00
6496;DHT22;3281;47.658;9.166;2023-02-15T09:16:31;3.40;1.00
6496;DHT22;3281;47.658;9.166;2023-02-15T09:18:58;3.30;1.00
6496;DHT22;3281;47.658;9.166;2023-02-15T09:21:27;3.30;1.00
6496;DHT22;3281;47.658;9.166;2023-02-15T09:23:57;3.40;1.00
6496;DHT22;3281;47.658;9.166;2023-02-15T09:26:26;3.50;1.00
6496;DHT22;3281;47.658;9.166;2023-02-15T09:28:55;3.60;1.00
6496;DHT22;3281;47.658;9.166;2023-02-15T09:31:23;3.50;1.00
6496;DHT22;3281;47.658;9.166;2023-02-15T09:33:50;3.70;1.00
6496;DHT22;3281;47.658;9.166;2023-02-15T09:36:19;3.60;1.00
6496;DHT22;3281;47.658;9.166;2023-02-15T09:38:52;3.60;1.00
6496;DHT22;3281;47.658;9.166;2023-02-15T09:44:20;3.70;1.00
6496;DHT22;3281;47.658;9.166;2023-02-15T09:47:04;3.70;1.00
6496;DHT22;3281;47.658;9.166;2023-02-15T09:49:40;3.70;1.00
6496;DHT22;3281;47.658;9.166;2023-02-15T09:52:23;3.70;1.00
6496;DHT22;3281;47.658;9.166;2023-02-15T09:55:04;3.80;1.00
6496;DHT22;3281;47.658;9.166;2023-02-15T09:57:47;3.60;1.00
6496;DHT22;3281;47.658;9.166;2023-02-15T10:00:24;3.80;1.00
6496;DHT22;3281;47.658;9.166;2023-02-15T10:03:09;3.80;1.00
6496;DHT22;3281;47.658;9.166;2023-02-15T10:05:47;3.80;1.00
6496;DHT22;3281;47.658;9.166;2023-02-15T10:08:40;3.90;1.00
6496;DHT22;3281;47.658;9.166;2023-02-15T10:11:14;3.90;1.00
6496;DHT22;3281;47.658;9.166;2023-02-15T10:14:14;4.00;1.00
6496;DHT22;3281;47.658;9.166;2023-02-15T10:16:50;4.10;1.00
6496;DHT22;3281;47.658;9.166;2023-02-15T10:19:29;3.80;1.00
6496;DHT22;3281;47.658;9.166;2023-02-15T10:22:05;3.70;1.00
6496;DHT22;3281;47.658;9.166;2023-02-15T10:24:51;3.90;1.00
6496;DHT22;3281;47.658;9.166;2023-02-15T10:27:22;4.00;1.00
6496;DHT22;3281;47.658;9.166;2023-02-15T10:30:01;4.00;1.00
6496;DHT22;3281;47.658;9.166;2023-02-15T10:32:32;4.00;1.00
6496;DHT22;3281;47.658;9.166;2023-02-15T10:35:10;4.00;1.00
6496;DHT22;3281;47.658;9.166;2023-02-15T10:37:52;4.00;1.00
6496;DHT22;3281;47.658;9.166;2023-02-15T10:40:30;3.90;1.00
6496;DHT22;3281;47.658;9.166;2023-02-15T10:43:29;4.10;1.00
6496;DHT22;3281;47.658;9.166;2023-02-15T10:46:07;4.20;1.00
6496;DHT22;3281;47.658;9.166;2023-02-15T10:48:54;4.20;1.00
6496;DHT22;3281;47.658;9.166;2023-02-15T10:51:36;4.40;1.00
6496;DHT22;3281;47.658;9.166;2023-02-15T10:54:19;4.10;1.00
6496;DHT22;3281;47.658;9.166;2023-02-15T10:56:55;4.20;1.00
6496;DHT22;3281;47.658;9.166;2023-02-15T10:59:42;4.40;1.00
6496;DHT22;3281;47.658;9.166;2023-02-15T11:02:19;4.50;1.00
6496;DHT22;3281;47.658;9.166;2023-02-15T11:05:08;4.50;1.00
6496;DHT22;3281;47.658;9.166;2023-02-15T11:07:47;4.60;1.00
6496;DHT22;3281;47.658;9.166;2023-02-15T11:10:26;4.60;1.00
6496;DHT22;3281;47.658;9.166;2023-02-15T11:12:55;4.70;1.00
6496;DHT22;3281;47.658;9.166;2023-02-15T11:15:28;4.60;1.00
6496;DHT22;3281;47.658;9.166;2023-02-15T11:18:08;4.50;1.00
6496;DHT22;3281;47.658;9.166;2023-02-15T11:20:38;4.30;1.00
6496;DHT22;3281;47.658;9.166;2023-02-15T11:23:13;4.00;1.00
6496;DHT22;3281;47.658;9.166;2023-02-15T11:25:43;4.20;1.00
6496;DHT22;3281;47.658;9.166;2023-02-15T11:28:18;4.20;1.00
6496;DHT22;3281;47.658;9.166;2023-02-15T11:30:48;4.60;1.00
6496;DHT22;3281;47.658;9.166;2023-02-15T11:33:21;4.70;1.00
6496;DHT22;3281;47.658;9.166;2023-02-15T11:35:52;5.10;1.00
6496;DHT22;3281;47.658;9.166;2023-02-15T11:38:22;5.00;1.00
6496;DHT22;3281;47.658;9.166;2023-02-15T11:40:54;5.20;1.00
6496;DHT22;3281;47.658;9.166;2023-02-15T11:43:26;4.80;1.00
6496;DHT22;3281;47.658;9.166;2023-02-15T11:45:54;5.00;1.00
6496;DHT22;3281;47.658;9.166;2023-02-15T11:48:23;4.90;1.00
6496;DHT22;3281;47.658;9.166;2023-02-15T11:50:49;4.80;1.00
6496;DHT22;3281;47.658;9.166;2023-02-15T11:53:18;5.00;1.00
6496;DHT22;3281;47.658;9.166;2023-02-15T11:55:48;5.10;1.00
6496;DHT22;3281;47.658;9.166;2023-02-15T11:58:23;5.10;1.00
6496;DHT22;3281;47.658;9.166;2023-02-15T12:00:57;5.30;1.00
6496;DHT22;3281;47.658;9.166;2023-02-15T12:03:37;5.70;1.00
6496;DHT22;3281;47.658;9.166;2023-02-15T12:06:13;5.60;1.00
6496;DHT22;3281;47.658;9.166;2023-02-15T12:08:50;5.50;1.00
6496;DHT22;3281;47.658;9.166;2023-02-15T12:11:20;5.70;1.00
6496;DHT22;3281;47.658;9.166;2023-02-15T12:13:56;5.80;1.00
6496;DHT22;3281;47.658;9.166;2023-02-15T12:16:24;5.90;1.00
6496;DHT22;3281;47.658;9.166;2023-02-15T12:18:56;5.90;1.00
6496;DHT22;3281;47.658;9.166;2023-02-15T12:21:29;5.80;1.00
6496;DHT22;3281;47.658;9.166;2023-02-15T12:24:00;5.80;1.00
6496;DHT22;3281;47.658;9.166;2023-02-15T12:26:30;5.80;1.00
6496;DHT22;3281;47.658;9.166;2023-02-15T12:29:01;5.90;1.00
6496;DHT22;3281;47.658;9.166;2023-02-15T12:31:36;6.00;1.00
6496;DHT22;3281;47.658;9.166;2023-02-15T12:34:11;6.20;1.00
6496;DHT22;3281;47.658;9.166;2023-02-15T12:36:42;6.10;1.00
6496;DHT22;3281;47.658;9.166;2023-02-15T12:39:22;6.10;1.00
6496;DHT22;3281;47.658;9.166;2023-02-15T12:42:03;6.10;1.00
6496;DHT22;3281;47.658;9.166;2023-02-15T12:44:32;6.50;1.00
6496;DHT22;3281;47.658;9.166;2023-02-15T12:47:01;6.70;1.00
6496;DHT22;3281;47.658;9.166;2023-02-15T12:49:31;6.40;1.00
6496;DHT22;3281;47.658;9.166;2023-02-15T12:52:00;6.40;1.00
6496;DHT22;3281;47.658;9.166;2023-02-15T12:54:36;6.90;1.00
6496;DHT22;3281;47.658;9.166;2023-02-15T12:57:20;7.20;1.00
6496;DHT22;3281;47.658;9.166;2023-02-15T12:59:49;7.20;1.00
6496;DHT22;3281;47.658;9.166;2023-02-15T13:02:21;7.90;1.00
6496;DHT22;3281;47.658;9.166;2023-02-15T13:04:50;8.50;1.00
6496;DHT22;3281;47.658;9.166;2023-02-15T13:07:17;8.60;1.00
6496;DHT22;3281;47.658;9.166;2023-02-15T13:09:44;9.00;1.00
6496;DHT22;3281;47.658;9.166;2023-02-15T13:12:17;8.90;1.00
6496;DHT22;3281;47.658;9.166;2023-02-15T13:14:46;9.10;1.00
6496;DHT22;3281;47.658;9.166;2023-02-15T13:17:16;8.70;1.00
6496;DHT22;3281;47.658;9.166;2023-02-15T13:19:46;9.70;1.00
6496;DHT22;3281;47.658;9.166;2023-02-15T13:22:18;10.30;1.00
6496;DHT22;3281;47.658;9.166;2023-02-15T13:24:48;10.90;1.00
6496;DHT22;3281;47.658;9.166;2023-02-15T13:27:19;11.60;1.00
6496;DHT22;3281;47.658;9.166;2023-02-15T13:29:49;11.20;1.00
6496;DHT22;3281;47.658;9.166;2023-02-15T13:32:25;10.60;1.00
6496;DHT22;3281;47.658;9.166;2023-02-15T13:34:56;10.10;1.00
6496;DHT22;3281;47.658;9.166;2023-02-15T13:37:42;9.70;1.00
6496;DHT22;3281;47.658;9.166;2023-02-15T13:40:15;9.20;1.00
6496;DHT22;3281;47.658;9.166;2023-02-15T13:42:44;9.60;1.00
6496;DHT22;3281;47.658;9.166;2023-02-15T13:45:29;9.90;1.00
6496;DHT22;3281;47.658;9.166;2023-02-15T13:48:03;10.60;1.00
6496;DHT22;3281;47.658;9.166;2023-02-15T13:50:43;10.80;1.00
6496;DHT22;3281;47.658;9.166;2023-02-15T13:53:35;11.30;1.00
6496;DHT22;3281;47.658;9.166;2023-02-15T13:56:13;12.70;1.00
6496;DHT22;3281;47.658;9.166;2023-02-15T14:01:53;14.10;1.00
6496;DHT22;3281;47.658;9.166;2023-02-15T14:04:48;14.50;1.00
6496;DHT22;3281;47.658;9.166;2023-02-15T14:07:32;14.30;1.00
6496;DHT22;3281;47.658;9.166;2023-02-15T14:10:16;13.60;1.00
6496;DHT22;3281;47.658;9.166;2023-02-15T14:12:56;13.60;1.00
6496;DHT22;3281;47.658;9.166;2023-02-15T14:15:32;13.30;1.00
6496;DHT22;3281;47.658;9.166;2023-02-15T14:18:12;13.00;1.00
6496;DHT22;3281;47.658;9.166;2023-02-15T14:20:47;12.10;1.00
6496;DHT22;3281;47.658;9.166;2023-02-15T14:23:26;11.30;1.00
6496;DHT22;3281;47.658;9.166;2023-02-15T14:26:00;10.60;1.00
6496;DHT22;3281;47.658;9.166;2023-02-15T14:28:34;10.20;1.00
6496;DHT22;3281;47.658;9.166;2023-02-15T14:31:04;10.30;1.00
6496;DHT22;3281;47.658;9.166;2023-02-15T14:33:36;10.40;1.00
6496;DHT22;3281;47.658;9.166;2023-02-15T14:36:07;10.60;1.00
6496;DHT22;3281;47.658;9.166;2023-02-15T14:38:47;10.80;1.00
6496;DHT22;3281;47.658;9.166;2023-02-15T14:41:20;10.70;1.00
6496;DHT22;3281;47.658;9.166;2023-02-15T14:43:55;10.20;1.00
6496;DHT22;3281;47.658;9.166;2023-02-15T14:46:31;9.50;1.00
6496;DHT22;3281;47.658;9.166;2023-02-15T14:49:05;9.10;1.00
6496;DHT22;3281;47.658;9.166;2023-02-15T14:51:54;8.50;1.00
6496;DHT22;3281;47.658;9.166;2023-02-15T14:54:53;7.70;1.00
6496;DHT22;3281;47.658;9.166;2023-02-15T14:57:24;7.30;1.00
6496;DHT22;3281;47.658;9.166;2023-02-15T14:59:54;6.80;1.00
6496;DHT22;3281;47.658;9.166;2023-02-15T15:02:25;6.60;1.00
6496;DHT22;3281;47.658;9.166;2023-02-15T15:05:07;6.20;1.00
6496;DHT22;3281;47.658;9.166;2023-02-15T15:07:43;6.20;1.00
6496;DHT22;3281;47.658;9.166;2023-02-15T15:10:34;6.10;1.00
6496;DHT22;3281;47.658;9.166;2023-02-15T15:13:35;6.00;1.00
6496;DHT22;3281;47.658;9.166;2023-02-15T15:19:10;5.80;1.00
6496;DHT22;3281;47.658;9.166;2023-02-15T15:21:56;5.60;1.00
6496;DHT22;3281;47.658;9.166;2023-02-15T15:24:52;5.60;1.00
6496;DHT22;3281;47.658;9.166;2023-02-15T15:27:38;5.30;1.00
6496;DHT22;3281;47.658;9.166;2023-02-15T15:33:16;5.20;1.00
6496;DHT22;3281;47.658;9.166;2023-02-15T15:36:01;5.20;1.00
6496;DHT22;3281;47.658;9.166;2023-02-15T15:38:40;5.10;1.00
6496;DHT22;3281;47.658;9.166;2023-02-15T15:41:18;4.80;1.00
6496;DHT22;3281;47.658;9.166;2023-02-15T15:47:08;4.80;1.00
6496;DHT22;3281;47.658;9.166;2023-02-15T15:49:40;4.70;1.00
6496;DHT22;3281;47.658;9.166;2023-02-15T15:52:12;4.60;1.00
6496;DHT22;3281;47.658;9.166;2023-02-15T15:54:41;4.70;1.00
6496;DHT22;3281;47.658;9.166;2023-02-15T15:57:15;4.60;1.00
6496;DHT22;3281;47.658;9.166;2023-02-15T15:59:44;4.50;1.00
6496;DHT22;3281;47.658;9.166;2023-02-15T16:02:13;4.50;1.00
6496;DHT22;3281;47.658;9.166;2023-02-15T16:04:44;4.40;1.00
6496;DHT22;3281;47.658;9.166;2023-02-15T16:07:25;4.30;1.00
6496;DHT22;3281;47.658;9.166;2023-02-15T16:09:57;4.20;1.00
6496;DHT22;3281;47.658;9.166;2023-02-15T16:12:25;4.10;1.00
6496;DHT22;3281;47.658;9.166;2023-02-15T16:14:52;4.00;1.00
6496;DHT22;3281;47.658;9.166;2023-02-15T16:17:23;4.00;1.00
6496;DHT22;3281;47.658;9.166;2023-02-15T16:19:53;3.90;1.00
6496;DHT22;3281;47.658;9.166;2023-02-15T16:22:25;3.90;1.00
6496;DHT22;3281;47.658;9.166;2023-02-15T16:25:16;3.80;1.00
6496;DHT22;3281;47.658;9.166;2023-02-15T16:27:46;3.70;1.00
6496;DHT22;3281;47.658;9.166;2023-02-15T16:30:19;3.60;1.00
6496;DHT22;3281;47.658;9.166;2023-02-15T16:32:46;3.70;1.00
6496;DHT22;3281;47.658;9.166;2023-02-15T16:35:16;3.60;1.00
6496;DHT22;3281;47.658;9.166;2023-02-15T16:37:44;3.50;1.00
6496;DHT22;3281;47.658;9.166;2023-02-15T16:40:37;3.60;1.00
6496;DHT22;3281;47.658;9.166;2023-02-15T16:43:13;3.50;1.00
6496;DHT22;3281;47.658;9.166;2023-02-15T16:45:41;3.40;1.00
6496;DHT22;3281;47.658;9.166;2023-02-15T16:48:12;3.30;1.00
6496;DHT22;3281;47.658;9.166;2023-02-15T16:50:47;3.30;1.00
6496;DHT22;3281;47.658;9.166;2023-02-15T16:53:20;3.30;1.00
6496;DHT22;3281;47.658;9.166;2023-02-15T16:55:50;3.20;1.00
6496;DHT22;3281;47.658;9.166;2023-02-15T16:58:22;3.20;1.00
6496;DHT22;3281;47.658;9.166;2023-02-15T17:00:49;3.10;1.00
6496;DHT22;3281;47.658;9.166;2023-02-15T17:03:21;3.10;1.00
6496;DHT22;3281;47.658;9.166;2023-02-15T17:05:52;3.10;1.00
6496;DHT22;3281;47.658;9.166;2023-02-15T17:08:25;3.10;1.00
6496;DHT22;3281;47.658;9.166;2023-02-15T17:11:04;3.00;1.00
6496;DHT22;3281;47.658;9.166;2023-02-15T17:13:32;2.90;1.00
6496;DHT22;3281;47.658;9.166;2023-02-15T17:16:25;3.20;1.00
6496;DHT22;3281;47.658;9.166;2023-02-15T17:18:53;3.30;1.00
6496;DHT22;3281;47.658;9.166;2023-02-15T17:21:29;2.90;1.00
6496;DHT22;3281;47.658;9.166;2023-02-15T17:23:58;2.80;1.00